| time (UTC) | temp F | wind direction | speed MPH | gust MPH | rain 1hr in | rain 24hr in | rain mn in | humidity % | barometer mb |
| 20260504221019 | 74 | 122 | 1.0 | 5.0 | 0.00 | 0.00 | 0.00 | 40 | 1009.4 |
| 20260504220520 | 75 | 0 | 2.0 | 5.0 | 0.00 | 0.00 | 0.00 | 39 | 1009.4 |
| 20260504220033 | 75 | 45 | 1.0 | 5.0 | 0.00 | 0.00 | 0.00 | 36 | 1009.3 |
| 20260504215520 | 75 | 41 | 1.0 | 9.0 | 0.00 | 0.00 | 0.00 | 36 | 1009.3 |
| 20260504215019 | 75 | 260 | 1.0 | 9.0 | 0.00 | 0.00 | 0.00 | 35 | 1009.3 |
| 20260504214535 | 75 | 214 | 2.0 | 5.0 | 0.00 | 0.00 | 0.00 | 33 | 1009.4 |
| 20260504214019 | 75 | 280 | 0.0 | 6.0 | 0.00 | 0.00 | 0.00 | 34 | 1009.4 |
| 20260504213518 | 76 | 184 | 1.0 | 6.0 | 0.00 | 0.00 | 0.00 | 35 | 1009.4 |
| 20260504213043 | 76 | 188 | 2.0 | 5.0 | 0.00 | 0.00 | 0.00 | 36 | 1009.5 |
| 20260504212518 | 76 | 20 | 1.0 | 4.0 | 0.00 | 0.00 | 0.00 | 32 | 1009.4 |
| 20260504212017 | 76 | 201 | 1.0 | 6.0 | 0.00 | 0.00 | 0.00 | 32 | 1009.4 |
| 20260504211533 | 76 | 96 | 2.0 | 6.0 | 0.00 | 0.00 | 0.00 | 34 | 1009.4 |
| 20260504211018 | 76 | 258 | 2.0 | 6.0 | 0.00 | 0.00 | 0.00 | 36 | 1009.4 |
| 20260504210518 | 76 | 165 | 1.0 | 9.0 | 0.00 | 0.00 | 0.00 | 35 | 1009.4 |
| 20260504210033 | 76 | 174 | 2.0 | 9.0 | 0.00 | 0.00 | 0.00 | 35 | 1009.5 |
| 20260504205518 | 77 | 180 | 2.0 | 6.0 | 0.00 | 0.00 | 0.00 | 35 | 1009.5 |
| 20260504205018 | 77 | 52 | 2.0 | 7.0 | 0.00 | 0.00 | 0.00 | 35 | 1009.5 |
| 20260504204537 | 77 | 55 | 1.0 | 8.0 | 0.00 | 0.00 | 0.00 | 37 | 1009.7 |
| 20260504204018 | 77 | 163 | 1.0 | 8.0 | 0.00 | 0.00 | 0.00 | 35 | 1009.8 |
| 20260504203518 | 77 | 169 | 2.0 | 8.0 | 0.00 | 0.00 | 0.00 | 31 | 1009.8 |
| 20260504203039 | 77 | 169 | 3.0 | 13.0 | 0.00 | 0.00 | 0.00 | 31 | 1009.9 |
| 20260504202522 | 77 | 202 | 2.0 | 13.0 | 0.00 | 0.00 | 0.00 | 35 | 1009.9 |
| 20260504202019 | 77 | 166 | 4.0 | 12.0 | 0.00 | 0.00 | 0.00 | 35 | 1010.0 |
| 20260504201538 | 76 | 221 | 1.0 | 6.0 | 0.00 | 0.00 | 0.00 | 35 | 1010.0 |
| 20260504201018 | 76 | 183 | 1.0 | 10.0 | 0.00 | 0.00 | 0.00 | 36 | 1010.1 |
| 20260504200518 | 76 | 59 | 2.0 | 10.0 | 0.00 | 0.00 | 0.00 | 34 | 1010.3 |
| 20260504200038 | 77 | 360 | 1.0 | 7.0 | 0.00 | 0.00 | 0.00 | 37 | 1010.3 |
| 20260504195518 | 77 | 215 | 2.0 | 8.0 | 0.00 | 0.00 | 0.00 | 34 | 1010.3 |
| 20260504195019 | 77 | 170 | 3.0 | 8.0 | 0.00 | 0.00 | 0.00 | 35 | 1010.4 |
| 20260504194532 | 76 | 180 | 3.0 | 7.0 | 0.00 | 0.00 | 0.00 | 36 | 1010.5 |
| 20260504194019 | 76 | 27 | 1.0 | 9.0 | 0.00 | 0.00 | 0.00 | 33 | 1010.5 |
| 20260504193519 | 76 | 192 | 2.0 | 9.0 | 0.00 | 0.00 | 0.00 | 36 | 1010.8 |
| 20260504193038 | 76 | 133 | 2.0 | 9.0 | 0.00 | 0.00 | 0.00 | 37 | 1010.9 |
| 20260504192518 | 76 | 217 | 4.0 | 9.0 | 0.00 | 0.00 | 0.00 | 36 | 1011.0 |
| 20260504192018 | 76 | 5 | 2.0 | 8.0 | 0.00 | 0.00 | 0.00 | 35 | 1011.0 |
| 20260504191534 | 76 | 352 | 3.0 | 8.0 | 0.00 | 0.00 | 0.00 | 39 | 1011.1 |
| 20260504191018 | 76 | 89 | 1.0 | 6.0 | 0.00 | 0.00 | 0.00 | 36 | 1011.1 |
| 20260504190520 | 76 | 138 | 2.0 | 5.0 | 0.00 | 0.00 | 0.00 | 37 | 1011.3 |
| 20260504190039 | 76 | 298 | 1.0 | 5.0 | 0.00 | 0.00 | 0.00 | 37 | 1011.4 |
| 20260504185518 | 75 | 237 | 1.0 | 5.0 | 0.00 | 0.00 | 0.00 | 37 | 1011.4 |
| 20260504185018 | 75 | 56 | 2.0 | 8.0 | 0.00 | 0.00 | 0.00 | 35 | 1011.5 |
| 20260504184534 | 75 | 178 | 3.0 | 8.0 | 0.00 | 0.00 | 0.00 | 34 | 1011.5 |
| 20260504184020 | 75 | 70 | 2.0 | 10.0 | 0.00 | 0.00 | 0.00 | 34 | 1011.6 |
| 20260504183519 | 74 | 26 | 1.0 | 10.0 | 0.00 | 0.00 | 0.00 | 37 | 1011.7 |
| 20260504183033 | 74 | 189 | 1.0 | 9.0 | 0.00 | 0.00 | 0.00 | 39 | 1011.7 |
| 20260504182519 | 74 | 26 | 2.0 | 9.0 | 0.00 | 0.00 | 0.00 | 36 | 1011.8 |
| 20260504182019 | 74 | 273 | 3.0 | 9.0 | 0.00 | 0.00 | 0.00 | 34 | 1011.8 |
| 20260504181533 | 74 | 202 | 2.0 | 9.0 | 0.00 | 0.00 | 0.00 | 37 | 1012.0 |
| 20260504181019 | 74 | 331 | 2.0 | 9.0 | 0.00 | 0.00 | 0.00 | 37 | 1011.9 |
| 20260504180519 | 74 | 101 | 3.0 | 9.0 | 0.00 | 0.00 | 0.00 | 37 | 1012.0 |
| 20260504180032 | 74 | 198 | 2.0 | 6.0 | 0.00 | 0.00 | 0.00 | 35 | 1012.0 |
| 20260504175521 | 74 | 180 | 2.0 | 8.0 | 0.00 | 0.00 | 0.00 | 32 | 1012.1 |
| 20260504175018 | 74 | 336 | 2.0 | 8.0 | 0.00 | 0.00 | 0.00 | 36 | 1012.2 |
| 20260504174534 | 73 | 168 | 2.0 | 8.0 | 0.00 | 0.00 | 0.00 | 34 | 1012.0 |
| 20260504174016 | 73 | 178 | 2.0 | 5.0 | 0.00 | 0.00 | 0.00 | 32 | 1012.1 |
| 20260504173519 | 73 | 42 | 2.0 | 6.0 | 0.00 | 0.00 | 0.00 | 35 | 1012.3 |
| 20260504173036 | 72 | 18 | 2.0 | 8.0 | 0.00 | 0.00 | 0.00 | 33 | 1012.3 |
| 20260504172519 | 72 | 175 | 2.0 | 8.0 | 0.00 | 0.00 | 0.00 | 35 | 1012.3 |
| 20260504172019 | 72 | 193 | 2.0 | 6.0 | 0.00 | 0.00 | 0.00 | 33 | 1012.5 |
| 20260504171532 | 72 | 184 | 1.0 | 6.0 | 0.00 | 0.00 | 0.00 | 33 | 1012.7 |
| 20260504171019 | 72 | 5 | 2.0 | 6.0 | 0.00 | 0.00 | 0.00 | 35 | 1012.8 |
| 20260504170516 | 73 | 85 | 2.0 | 6.0 | 0.00 | 0.00 | 0.00 | 37 | 1012.7 |
| 20260504151018 | 69 | 222 | 1.0 | 4.0 | 0.00 | 0.00 | 0.00 | 36 | 1013.7 |
| 20260504150518 | 68 | 236 | 0.0 | 4.0 | 0.00 | 0.00 | 0.00 | 39 | 1013.9 |
| 20260504141017 | 64 | 309 | 0.0 | 3.0 | 0.00 | 0.00 | 0.00 | 47 | 1014.2 |
| 20260504140516 | 63 | 223 | 1.0 | 3.0 | 0.00 | 0.00 | 0.00 | 42 | 1014.3 |
| 20260504130516 | 58 | 188 | 2.0 | 8.0 | 0.00 | 0.00 | 0.00 | 49 | 1014.5 |
| 20260504110518 | 46 | 247 | 0.0 | 2.0 | 0.00 | 0.00 | 0.00 | 79 | 1015.1 |
| 20260504100518 | 47 | 247 | 0.0 | 2.0 | 0.00 | 0.00 | 0.00 | 77 | 1015.1 |
| 20260504081537 | 46 | 0 | 0.0 | 2.0 | 0.00 | 0.00 | 0.00 | 75 | 1015.3 |
| 20260504081018 | 46 | 0 | 0.0 | 2.0 | 0.00 | 0.00 | 0.00 | 72 | 1015.3 |
| 20260504080517 | 46 | 0 | 0.0 | 2.0 | 0.00 | 0.00 | 0.00 | 74 | 1015.3 |
| 20260504050518 | 43 | 0 | 0.0 | 2.0 | 0.00 | 0.00 | 0.00 | 74 | 1015.6 |
| 20260504045518 | 43 | 0 | 0.0 | 2.0 | 0.00 | 0.00 | 0.00 | 73 | 1015.6 |
| 20260504045018 | 43 | 0 | 0.0 | 0.0 | 0.00 | 0.00 | 0.00 | 73 | 1015.6 |
| 20260504044540 | 43 | 0 | 0.0 | 0.0 | 0.00 | 0.00 | 0.00 | 72 | 1015.6 |
| 20260504044018 | 44 | 0 | 0.0 | 2.0 | 0.00 | 0.00 | 0.00 | 72 | 1015.6 |
| 20260504043519 | 44 | 0 | 0.0 | 2.0 | 0.00 | 0.00 | 0.00 | 72 | 1015.7 |
| 20260504043035 | 44 | 0 | 0.0 | 2.0 | 0.00 | 0.00 | 0.00 | 72 | 1015.6 |
| 20260504042517 | 44 | 0 | 0.0 | 2.0 | 0.00 | 0.00 | 0.00 | 71 | 1015.6 |
| 20260504042019 | 44 | 196 | 0.0 | 2.0 | 0.00 | 0.00 | 0.00 | 71 | 1015.6 |
| 20260504041535 | 44 | 0 | 0.0 | 2.0 | 0.00 | 0.00 | 0.00 | 70 | 1015.7 |
| 20260504041017 | 44 | 0 | 0.0 | 2.0 | 0.00 | 0.00 | 0.00 | 70 | 1015.7 |
| 20260504040518 | 44 | 0 | 0.0 | 2.0 | 0.00 | 0.00 | 0.00 | 69 | 1015.7 |
| 20260504040041 | 44 | 0 | 0.0 | 2.0 | 0.00 | 0.00 | 0.00 | 69 | 1015.6 |
| 20260504035521 | 44 | 0 | 0.0 | 2.0 | 0.00 | 0.00 | 0.00 | 69 | 1015.7 |
| 20260504035020 | 45 | 0 | 0.0 | 2.0 | 0.00 | 0.00 | 0.00 | 69 | 1015.6 |
| 20260504034540 | 45 | 0 | 0.0 | 2.0 | 0.00 | 0.00 | 0.00 | 68 | 1015.5 |
| 20260504034018 | 45 | 196 | 0.0 | 2.0 | 0.00 | 0.00 | 0.00 | 67 | 1015.5 |
| 20260504033520 | 45 | 0 | 0.0 | 2.0 | 0.00 | 0.00 | 0.00 | 66 | 1015.5 |
| 20260504033040 | 45 | 0 | 0.0 | 2.0 | 0.00 | 0.00 | 0.00 | 68 | 1015.4 |
| 20260504032518 | 45 | 196 | 0.0 | 2.0 | 0.00 | 0.00 | 0.00 | 68 | 1015.3 |
| 20260504032018 | 45 | 0 | 0.0 | 2.0 | 0.00 | 0.00 | 0.00 | 69 | 1015.2 |
| 20260504031543 | 45 | 0 | 0.0 | 2.0 | 0.00 | 0.00 | 0.00 | 68 | 1015.2 |
| 20260504031017 | 45 | 196 | 0.0 | 2.0 | 0.00 | 0.00 | 0.00 | 67 | 1015.1 |
| 20260504030518 | 45 | 196 | 0.0 | 2.0 | 0.00 | 0.00 | 0.00 | 67 | 1015.0 |
| 20260504030040 | 45 | 196 | 0.0 | 2.0 | 0.00 | 0.00 | 0.00 | 67 | 1014.9 |
| 20260504025518 | 45 | 0 | 0.0 | 2.0 | 0.00 | 0.00 | 0.00 | 68 | 1014.9 |
| 20260504025020 | 45 | 0 | 0.0 | 2.0 | 0.00 | 0.00 | 0.00 | 68 | 1014.9 |
| 20260504024534 | 45 | 196 | 0.0 | 2.0 | 0.00 | 0.00 | 0.00 | 66 | 1015.0 |
| 20260504024017 | 46 | 0 | 0.0 | 0.0 | 0.00 | 0.00 | 0.00 | 66 | 1014.9 |
| 20260504023518 | 46 | 0 | 0.0 | 1.0 | 0.00 | 0.00 | 0.00 | 66 | 1014.9 |
| 20260504023040 | 46 | 0 | 0.0 | 1.0 | 0.00 | 0.00 | 0.00 | 66 | 1015.0 |
| 20260504022517 | 46 | 0 | 0.0 | 0.0 | 0.00 | 0.00 | 0.00 | 63 | 1014.9 |
| 20260504022019 | 46 | 0 | 0.0 | 2.0 | 0.00 | 0.00 | 0.00 | 65 | 1014.9 |
| 20260504021536 | 46 | 0 | 0.0 | 2.0 | 0.00 | 0.00 | 0.00 | 66 | 1014.9 |
| 20260504021017 | 47 | 196 | 0.0 | 2.0 | 0.00 | 0.00 | 0.00 | 65 | 1014.8 |
| 20260504020517 | 47 | 0 | 0.0 | 2.0 | 0.00 | 0.00 | 0.00 | 65 | 1014.9 |
| 20260504020034 | 47 | 0 | 0.0 | 2.0 | 0.00 | 0.00 | 0.00 | 65 | 1014.8 |
| 20260504015518 | 47 | 0 | 0.0 | 2.0 | 0.00 | 0.00 | 0.00 | 64 | 1014.9 |
| 20260504015018 | 47 | 0 | 0.0 | 0.0 | 0.00 | 0.00 | 0.00 | 61 | 1014.9 |
| 20260504014534 | 48 | 0 | 0.0 | 0.0 | 0.00 | 0.00 | 0.00 | 63 | 1014.7 |
| 20260504014016 | 48 | 0 | 0.0 | 2.0 | 0.00 | 0.00 | 0.00 | 62 | 1014.8 |
| 20260504013516 | 48 | 0 | 0.0 | 2.0 | 0.00 | 0.00 | 0.00 | 62 | 1014.8 |
| 20260504013041 | 48 | 0 | 0.0 | 0.0 | 0.00 | 0.00 | 0.00 | 60 | 1014.7 |
| 20260504012519 | 49 | 0 | 0.0 | 0.0 | 0.00 | 0.00 | 0.00 | 60 | 1014.7 |
| 20260504012019 | 49 | 0 | 0.0 | 0.0 | 0.00 | 0.00 | 0.00 | 59 | 1014.7 |
| 20260504011539 | 49 | 0 | 0.0 | 0.0 | 0.00 | 0.00 | 0.00 | 59 | 1014.7 |
| 20260504011017 | 50 | 0 | 0.0 | 2.0 | 0.00 | 0.00 | 0.00 | 57 | 1014.6 |
| 20260504010516 | 50 | 0 | 0.0 | 2.0 | 0.00 | 0.00 | 0.00 | 54 | 1014.5 |
| 20260504010036 | 50 | 196 | 0.0 | 2.0 | 0.00 | 0.00 | 0.00 | 52 | 1014.6 |
| 20260504005517 | 51 | 0 | 0.0 | 0.0 | 0.00 | 0.00 | 0.00 | 55 | 1014.5 |
| 20260504005018 | 51 | 0 | 0.0 | 0.0 | 0.00 | 0.00 | 0.00 | 53 | 1014.5 |
| 20260504004536 | 52 | 0 | 0.0 | 0.0 | 0.00 | 0.00 | 0.00 | 52 | 1014.5 |
| 20260504004017 | 52 | 0 | 0.0 | 0.0 | 0.00 | 0.00 | 0.00 | 52 | 1014.5 |
| 20260504003516 | 53 | 0 | 0.0 | 0.0 | 0.00 | 0.00 | 0.00 | 47 | 1014.4 |
| 20260504003046 | 53 | 0 | 0.0 | 0.0 | 0.00 | 0.00 | 0.00 | 48 | 1014.3 |
| 20260504002516 | 54 | 0 | 0.0 | 0.0 | 0.00 | 0.00 | 0.00 | 47 | 1014.3 |
| 20260504002017 | 54 | 0 | 0.0 | 0.0 | 0.00 | 0.00 | 0.00 | 43 | 1014.3 |
| 20260504001540 | 55 | 0 | 0.0 | 0.0 | 0.00 | 0.00 | 0.00 | 44 | 1014.2 |
| 20260504001021 | 55 | 0 | 0.0 | 0.0 | 0.00 | 0.00 | 0.00 | 44 | 1014.2 |
| 20260504000522 | 56 | 0 | 0.0 | 0.0 | 0.00 | 0.00 | 0.00 | 43 | 1014.1 |
| 20260504000104 | 56 | 0 | 0.0 | 2.0 | 0.00 | 0.00 | 0.00 | 42 | 1014.1 |
| 20260503235517 | 57 | 0 | 0.0 | 2.0 | 0.00 | 0.00 | 0.00 | 42 | 1014.1 |
| 20260503235018 | 57 | 196 | 0.0 | 2.0 | 0.00 | 0.00 | 0.00 | 40 | 1014.1 |
| 20260503234540 | 57 | 0 | 0.0 | 2.0 | 0.00 | 0.00 | 0.00 | 40 | 1014.0 |
| 20260503234018 | 58 | 196 | 0.0 | 2.0 | 0.00 | 0.00 | 0.00 | 36 | 1014.0 |
| 20260503233516 | 58 | 194 | 0.0 | 2.0 | 0.00 | 0.00 | 0.00 | 37 | 1013.9 |
| 20260503233041 | 58 | 220 | 0.0 | 2.0 | 0.00 | 0.00 | 0.00 | 34 | 1013.9 |
| 20260503232519 | 59 | 215 | 0.0 | 2.0 | 0.00 | 0.00 | 0.00 | 37 | 1013.8 |
| 20260503232017 | 59 | 296 | 1.0 | 5.0 | 0.00 | 0.00 | 0.00 | 36 | 1013.8 |
| 20260503231541 | 59 | 0 | 1.0 | 5.0 | 0.00 | 0.00 | 0.00 | 35 | 1013.7 |
| 20260503231020 | 59 | 217 | 0.0 | 5.0 | 0.00 | 0.00 | 0.00 | 34 | 1013.7 |
| 20260503230521 | 59 | 13 | 2.0 | 5.0 | 0.00 | 0.00 | 0.00 | 32 | 1013.7 |
| 20260503230041 | 59 | 327 | 1.0 | 5.0 | 0.00 | 0.00 | 0.00 | 33 | 1013.7 |
| 20260503225520 | 60 | 117 | 0.0 | 4.0 | 0.00 | 0.00 | 0.00 | 35 | 1013.7 |
| 20260503225019 | 60 | 188 | 0.0 | 4.0 | 0.00 | 0.00 | 0.00 | 32 | 1013.8 |
| 20260503224539 | 60 | 159 | 1.0 | 4.0 | 0.00 | 0.00 | 0.00 | 35 | 1013.8 |
| 20260503224020 | 60 | 313 | 1.0 | 5.0 | 0.00 | 0.00 | 0.00 | 36 | 1013.9 |
| 20260503223517 | 60 | 49 | 1.0 | 5.0 | 0.00 | 0.00 | 0.00 | 32 | 1013.9 |
| 20260503223042 | 60 | 347 | 2.0 | 5.0 | 0.00 | 0.00 | 0.00 | 35 | 1013.8 |
| 20260503222518 | 60 | 196 | 1.0 | 5.0 | 0.00 | 0.00 | 0.00 | 32 | 1013.8 |
| 20260503222019 | 61 | 157 | 1.0 | 12.0 | 0.00 | 0.00 | 0.00 | 32 | 1013.8 |
| 20260503221549 | 61 | 0 | 1.0 | 12.0 | 0.00 | 0.00 | 0.00 | 36 | 1013.8 |